sensor_id;sensor_type;location;lat;lon;timestamp;P1;durP1;ratioP1;P2;durP2;ratioP2
57615;SDS011;43816;52.054;-9.494;2023-05-16T00:00:07;1.73;;;1.50;;
57615;SDS011;43816;52.054;-9.494;2023-05-16T00:00:18;1.85;;;1.60;;
57615;SDS011;43816;52.054;-9.494;2023-05-16T00:00:29;1.98;;;1.75;;
57615;SDS011;43816;52.054;-9.494;2023-05-16T00:00:39;2.07;;;1.87;;
57615;SDS011;43816;52.054;-9.494;2023-05-16T00:00:50;2.00;;;1.80;;
57615;SDS011;43816;52.054;-9.494;2023-05-16T00:01:00;1.80;;;1.67;;
57615;SDS011;43816;52.054;-9.494;2023-05-16T00:01:10;1.70;;;1.60;;
57615;SDS011;43816;52.054;-9.494;2023-05-16T00:01:20;2.00;;;1.65;;
57615;SDS011;43816;52.054;-9.494;2023-05-16T00:01:31;2.10;;;1.70;;
57615;SDS011;43816;52.054;-9.494;2023-05-16T00:01:41;2.27;;;1.70;;
57615;SDS011;43816;52.054;-9.494;2023-05-16T00:01:51;2.03;;;1.60;;
57615;SDS011;43816;52.054;-9.494;2023-05-16T00:02:02;1.80;;;1.60;;
57615;SDS011;43816;52.054;-9.494;2023-05-16T00:02:12;1.90;;;1.60;;
57615;SDS011;43816;52.054;-9.494;2023-05-16T00:02:22;2.13;;;1.60;;
57615;SDS011;43816;52.054;-9.494;2023-05-16T00:02:33;2.40;;;1.70;;
57615;SDS011;43816;52.054;-9.494;2023-05-16T00:02:46;2.10;;;1.80;;
57615;SDS011;43816;52.054;-9.494;2023-05-16T00:02:56;1.85;;;1.67;;
57615;SDS011;43816;52.054;-9.494;2023-05-16T00:03:06;1.70;;;1.57;;
57615;SDS011;43816;52.054;-9.494;2023-05-16T00:03:17;2.10;;;1.60;;
57615;SDS011;43816;52.054;-9.494;2023-05-16T00:03:28;2.00;;;1.60;;
57615;SDS011;43816;52.054;-9.494;2023-05-16T00:03:38;1.88;;;1.50;;
57615;SDS011;43816;52.054;-9.494;2023-05-16T00:03:48;1.60;;;1.40;;
57615;SDS011;43816;52.054;-9.494;2023-05-16T00:03:59;1.57;;;1.40;;
57615;SDS011;43816;52.054;-9.494;2023-05-16T00:04:09;1.67;;;1.58;;
57615;SDS011;43816;52.054;-9.494;2023-05-16T00:04:19;1.83;;;1.67;;
57615;SDS011;43816;52.054;-9.494;2023-05-16T00:04:29;2.37;;;1.67;;
57615;SDS011;43816;52.054;-9.494;2023-05-16T00:04:40;2.20;;;1.50;;
57615;SDS011;43816;52.054;-9.494;2023-05-16T00:04:50;1.85;;;1.40;;
57615;SDS011;43816;52.054;-9.494;2023-05-16T00:05:01;1.50;;;1.40;;
57615;SDS011;43816;52.054;-9.494;2023-05-16T00:05:11;1.58;;;1.48;;
57615;SDS011;43816;52.054;-9.494;2023-05-16T00:05:21;2.20;;;1.63;;
57615;SDS011;43816;52.054;-9.494;2023-05-16T00:05:32;2.38;;;1.60;;
57615;SDS011;43816;52.054;-9.494;2023-05-16T00:05:42;2.30;;;1.60;;
57615;SDS011;43816;52.054;-9.494;2023-05-16T00:05:52;1.90;;;1.57;;
57615;SDS011;43816;52.054;-9.494;2023-05-16T00:06:03;2.00;;;1.73;;
57615;SDS011;43816;52.054;-9.494;2023-05-16T00:06:13;2.00;;;1.77;;
57615;SDS011;43816;52.054;-9.494;2023-05-16T00:06:26;1.77;;;1.67;;
57615;SDS011;43816;52.054;-9.494;2023-05-16T00:06:36;1.75;;;1.60;;
57615;SDS011;43816;52.054;-9.494;2023-05-16T00:06:47;1.77;;;1.50;;
57615;SDS011;43816;52.054;-9.494;2023-05-16T00:06:57;1.87;;;1.50;;
57615;SDS011;43816;52.054;-9.494;2023-05-16T00:07:07;1.50;;;1.40;;
57615;SDS011;43816;52.054;-9.494;2023-05-16T00:07:18;1.83;;;1.52;;
57615;SDS011;43816;52.054;-9.494;2023-05-16T00:07:28;1.80;;;1.60;;
57615;SDS011;43816;52.054;-9.494;2023-05-16T00:07:40;2.03;;;1.60;;
57615;SDS011;43816;52.054;-9.494;2023-05-16T00:07:52;2.20;;;1.50;;
57615;SDS011;43816;52.054;-9.494;2023-05-16T00:08:03;2.13;;;1.43;;
57615;SDS011;43816;52.054;-9.494;2023-05-16T00:08:13;2.10;;;1.50;;
57615;SDS011;43816;52.054;-9.494;2023-05-16T00:08:27;2.03;;;1.60;;
57615;SDS011;43816;52.054;-9.494;2023-05-16T00:08:37;1.85;;;1.50;;
57615;SDS011;43816;52.054;-9.494;2023-05-16T00:08:48;1.57;;;1.40;;
57615;SDS011;43816;52.054;-9.494;2023-05-16T00:08:58;1.40;;;1.30;;
57615;SDS011;43816;52.054;-9.494;2023-05-16T00:09:09;1.57;;;1.47;;
57615;SDS011;43816;52.054;-9.494;2023-05-16T00:09:19;1.60;;;1.50;;
57615;SDS011;43816;52.054;-9.494;2023-05-16T00:09:29;1.70;;;1.60;;
57615;SDS011;43816;52.054;-9.494;2023-05-16T00:09:40;1.80;;;1.60;;
57615;SDS011;43816;52.054;-9.494;2023-05-16T00:09:50;1.60;;;1.50;;
57615;SDS011;43816;52.054;-9.494;2023-05-16T00:10:00;1.77;;;1.60;;
57615;SDS011;43816;52.054;-9.494;2023-05-16T00:10:11;1.70;;;1.60;;
57615;SDS011;43816;52.054;-9.494;2023-05-16T00:10:22;1.70;;;1.60;;
57615;SDS011;43816;52.054;-9.494;2023-05-16T00:10:32;1.60;;;1.48;;
57615;SDS011;43816;52.054;-9.494;2023-05-16T00:10:42;1.60;;;1.50;;
57615;SDS011;43816;52.054;-9.494;2023-05-16T00:10:53;1.53;;;1.40;;
57615;SDS011;43816;52.054;-9.494;2023-05-16T00:11:03;1.92;;;1.40;;
57615;SDS011;43816;52.054;-9.494;2023-05-16T00:11:15;1.93;;;1.40;;
57615;SDS011;43816;52.054;-9.494;2023-05-16T00:11:26;1.90;;;1.40;;
57615;SDS011;43816;52.054;-9.494;2023-05-16T00:11:36;1.60;;;1.40;;
57615;SDS011;43816;52.054;-9.494;2023-05-16T00:11:46;1.60;;;1.50;;
57615;SDS011;43816;52.054;-9.494;2023-05-16T00:11:57;1.60;;;1.50;;
57615;SDS011;43816;52.054;-9.494;2023-05-16T00:12:07;1.80;;;1.67;;
57615;SDS011;43816;52.054;-9.494;2023-05-16T00:12:17;1.77;;;1.60;;
57615;SDS011;43816;52.054;-9.494;2023-05-16T00:12:28;1.73;;;1.60;;
57615;SDS011;43816;52.054;-9.494;2023-05-16T00:12:38;1.50;;;1.40;;
57615;SDS011;43816;52.054;-9.494;2023-05-16T00:12:49;1.60;;;1.50;;
57615;SDS011;43816;52.054;-9.494;2023-05-16T00:12:59;1.70;;;1.60;;
57615;SDS011;43816;52.054;-9.494;2023-05-16T00:13:09;1.80;;;1.70;;
57615;SDS011;43816;52.054;-9.494;2023-05-16T00:13:20;1.70;;;1.57;;
57615;SDS011;43816;52.054;-9.494;2023-05-16T00:13:30;2.15;;;1.60;;
57615;SDS011;43816;52.054;-9.494;2023-05-16T00:13:40;2.10;;;1.60;;
57615;SDS011;43816;52.054;-9.494;2023-05-16T00:13:51;2.47;;;1.67;;
57615;SDS011;43816;52.054;-9.494;2023-05-16T00:14:01;2.37;;;1.67;;
57615;SDS011;43816;52.054;-9.494;2023-05-16T00:14:11;2.10;;;1.50;;
57615;SDS011;43816;52.054;-9.494;2023-05-16T00:14:21;1.98;;;1.50;;
57615;SDS011;43816;52.054;-9.494;2023-05-16T00:14:35;1.70;;;1.50;;
57615;SDS011;43816;52.054;-9.494;2023-05-16T00:14:45;1.70;;;1.50;;
57615;SDS011;43816;52.054;-9.494;2023-05-16T00:14:55;1.60;;;1.50;;
57615;SDS011;43816;52.054;-9.494;2023-05-16T00:15:06;1.60;;;1.50;;
57615;SDS011;43816;52.054;-9.494;2023-05-16T00:15:20;1.52;;;1.42;;
57615;SDS011;43816;52.054;-9.494;2023-05-16T00:15:30;1.52;;;1.42;;
57615;SDS011;43816;52.054;-9.494;2023-05-16T00:15:41;1.50;;;1.40;;
57615;SDS011;43816;52.054;-9.494;2023-05-16T00:15:51;1.60;;;1.50;;
57615;SDS011;43816;52.054;-9.494;2023-05-16T00:16:01;1.65;;;1.55;;
57615;SDS011;43816;52.054;-9.494;2023-05-16T00:16:12;1.60;;;1.50;;
57615;SDS011;43816;52.054;-9.494;2023-05-16T00:16:22;1.70;;;1.50;;
57615;SDS011;43816;52.054;-9.494;2023-05-16T00:16:32;1.65;;;1.48;;
57615;SDS011;43816;52.054;-9.494;2023-05-16T00:16:43;1.60;;;1.50;;
57615;SDS011;43816;52.054;-9.494;2023-05-16T00:16:53;1.47;;;1.37;;
57615;SDS011;43816;52.054;-9.494;2023-05-16T00:17:03;1.58;;;1.48;;
57615;SDS011;43816;52.054;-9.494;2023-05-16T00:17:14;1.70;;;1.60;;
57615;SDS011;43816;52.054;-9.494;2023-05-16T00:17:24;1.77;;;1.67;;
57615;SDS011;43816;52.054;-9.494;2023-05-16T00:17:35;2.10;;;1.50;;
57615;SDS011;43816;52.054;-9.494;2023-05-16T00:17:45;2.38;;;1.55;;
57615;SDS011;43816;52.054;-9.494;2023-05-16T00:17:55;2.33;;;1.43;;
57615;SDS011;43816;52.054;-9.494;2023-05-16T00:18:06;1.83;;;1.40;;
57615;SDS011;43816;52.054;-9.494;2023-05-16T00:18:16;2.30;;;1.40;;
57615;SDS011;43816;52.054;-9.494;2023-05-16T00:18:27;2.28;;;1.40;;
57615;SDS011;43816;52.054;-9.494;2023-05-16T00:18:38;2.20;;;1.50;;
57615;SDS011;43816;52.054;-9.494;2023-05-16T00:18:48;1.88;;;1.48;;
57615;SDS011;43816;52.054;-9.494;2023-05-16T00:18:58;1.90;;;1.57;;
57615;SDS011;43816;52.054;-9.494;2023-05-16T00:19:08;1.57;;;1.47;;
57615;SDS011;43816;52.054;-9.494;2023-05-16T00:19:19;1.50;;;1.40;;
57615;SDS011;43816;52.054;-9.494;2023-05-16T00:19:29;1.93;;;1.40;;
57615;SDS011;43816;52.054;-9.494;2023-05-16T00:19:39;2.00;;;1.50;;
57615;SDS011;43816;52.054;-9.494;2023-05-16T00:19:50;2.10;;;1.50;;
57615;SDS011;43816;52.054;-9.494;2023-05-16T00:20:00;1.60;;;1.50;;
57615;SDS011;43816;52.054;-9.494;2023-05-16T00:20:12;1.80;;;1.60;;
57615;SDS011;43816;52.054;-9.494;2023-05-16T00:20:23;1.70;;;1.50;;
57615;SDS011;43816;52.054;-9.494;2023-05-16T00:20:36;1.50;;;1.40;;
57615;SDS011;43816;52.054;-9.494;2023-05-16T00:20:49;1.63;;;1.47;;
57615;SDS011;43816;52.054;-9.494;2023-05-16T00:20:59;1.88;;;1.55;;
57615;SDS011;43816;52.054;-9.494;2023-05-16T00:21:09;1.83;;;1.53;;
57615;SDS011;43816;52.054;-9.494;2023-05-16T00:21:20;1.70;;;1.58;;
57615;SDS011;43816;52.054;-9.494;2023-05-16T00:21:30;1.70;;;1.60;;
57615;SDS011;43816;52.054;-9.494;2023-05-16T00:21:40;1.70;;;1.60;;
57615;SDS011;43816;52.054;-9.494;2023-05-16T00:21:51;1.60;;;1.50;;
57615;SDS011;43816;52.054;-9.494;2023-05-16T00:22:01;1.57;;;1.47;;
57615;SDS011;43816;52.054;-9.494;2023-05-16T00:22:11;1.47;;;1.37;;
57615;SDS011;43816;52.054;-9.494;2023-05-16T00:22:22;1.50;;;1.40;;
57615;SDS011;43816;52.054;-9.494;2023-05-16T00:22:32;1.43;;;1.33;;
57615;SDS011;43816;52.054;-9.494;2023-05-16T00:22:43;1.60;;;1.40;;
57615;SDS011;43816;52.054;-9.494;2023-05-16T00:22:53;1.63;;;1.30;;
57615;SDS011;43816;52.054;-9.494;2023-05-16T00:23:03;1.70;;;1.40;;
57615;SDS011;43816;52.054;-9.494;2023-05-16T00:23:14;1.53;;;1.40;;
57615;SDS011;43816;52.054;-9.494;2023-05-16T00:23:24;1.50;;;1.40;;
57615;SDS011;43816;52.054;-9.494;2023-05-16T00:23:34;1.40;;;1.30;;
57615;SDS011;43816;52.054;-9.494;2023-05-16T00:23:45;1.40;;;1.30;;
57615;SDS011;43816;52.054;-9.494;2023-05-16T00:23:55;1.40;;;1.30;;
57615;SDS011;43816;52.054;-9.494;2023-05-16T00:24:05;1.50;;;1.30;;
57615;SDS011;43816;52.054;-9.494;2023-05-16T00:24:16;1.53;;;1.30;;
57615;SDS011;43816;52.054;-9.494;2023-05-16T00:24:26;1.77;;;1.35;;
57615;SDS011;43816;52.054;-9.494;2023-05-16T00:24:37;1.50;;;1.40;;
57615;SDS011;43816;52.054;-9.494;2023-05-16T00:24:47;1.52;;;1.33;;
57615;SDS011;43816;52.054;-9.494;2023-05-16T00:24:57;1.47;;;1.33;;
57615;SDS011;43816;52.054;-9.494;2023-05-16T00:25:08;1.50;;;1.30;;
57615;SDS011;43816;52.054;-9.494;2023-05-16T00:25:18;1.58;;;1.40;;
57615;SDS011;43816;52.054;-9.494;2023-05-16T00:25:29;1.40;;;1.30;;
57615;SDS011;43816;52.054;-9.494;2023-05-16T00:25:39;1.47;;;1.37;;
57615;SDS011;43816;52.054;-9.494;2023-05-16T00:25:50;1.60;;;1.50;;
57615;SDS011;43816;52.054;-9.494;2023-05-16T00:26:00;1.65;;;1.55;;
57615;SDS011;43816;52.054;-9.494;2023-05-16T00:26:10;1.57;;;1.47;;
57615;SDS011;43816;52.054;-9.494;2023-05-16T00:26:20;1.80;;;1.40;;
57615;SDS011;43816;52.054;-9.494;2023-05-16T00:26:31;1.90;;;1.40;;
57615;SDS011;43816;52.054;-9.494;2023-05-16T00:26:41;2.00;;;1.40;;
57615;SDS011;43816;52.054;-9.494;2023-05-16T00:26:51;1.70;;;1.40;;
57615;SDS011;43816;52.054;-9.494;2023-05-16T00:27:01;1.53;;;1.33;;
57615;SDS011;43816;52.054;-9.494;2023-05-16T00:27:12;1.50;;;1.40;;
57615;SDS011;43816;52.054;-9.494;2023-05-16T00:27:22;1.53;;;1.40;;
57615;SDS011;43816;52.054;-9.494;2023-05-16T00:27:33;1.60;;;1.40;;
57615;SDS011;43816;52.054;-9.494;2023-05-16T00:27:43;1.65;;;1.40;;
57615;SDS011;43816;52.054;-9.494;2023-05-16T00:27:54;1.52;;;1.40;;
57615;SDS011;43816;52.054;-9.494;2023-05-16T00:28:04;1.60;;;1.40;;
57615;SDS011;43816;52.054;-9.494;2023-05-16T00:28:15;1.67;;;1.40;;
57615;SDS011;43816;52.054;-9.494;2023-05-16T00:28:25;1.52;;;1.30;;
57615;SDS011;43816;52.054;-9.494;2023-05-16T00:28:36;1.50;;;1.30;;
57615;SDS011;43816;52.054;-9.494;2023-05-16T00:28:46;1.50;;;1.30;;
57615;SDS011;43816;52.054;-9.494;2023-05-16T00:28:59;1.80;;;1.42;;
57615;SDS011;43816;52.054;-9.494;2023-05-16T00:29:10;1.63;;;1.40;;
57615;SDS011;43816;52.054;-9.494;2023-05-16T00:29:20;1.60;;;1.50;;
57615;SDS011;43816;52.054;-9.494;2023-05-16T00:29:30;1.47;;;1.37;;
57615;SDS011;43816;52.054;-9.494;2023-05-16T00:29:41;1.40;;;1.30;;
57615;SDS011;43816;52.054;-9.494;2023-05-16T00:29:51;1.33;;;1.20;;
57615;SDS011;43816;52.054;-9.494;2023-05-16T00:30:02;1.63;;;1.30;;
57615;SDS011;43816;52.054;-9.494;2023-05-16T00:30:12;1.45;;;1.30;;
57615;SDS011;43816;52.054;-9.494;2023-05-16T00:30:23;1.53;;;1.40;;
57615;SDS011;43816;52.054;-9.494;2023-05-16T00:30:33;1.42;;;1.30;;
57615;SDS011;43816;52.054;-9.494;2023-05-16T00:30:44;1.77;;;1.50;;
57615;SDS011;43816;52.054;-9.494;2023-05-16T00:30:54;1.98;;;1.55;;
57615;SDS011;43816;52.054;-9.494;2023-05-16T00:31:05;2.27;;;1.57;;
57615;SDS011;43816;52.054;-9.494;2023-05-16T00:31:15;2.22;;;1.55;;
57615;SDS011;43816;52.054;-9.494;2023-05-16T00:31:25;1.53;;;1.43;;
57615;SDS011;43816;52.054;-9.494;2023-05-16T00:31:36;1.50;;;1.40;;
57615;SDS011;43816;52.054;-9.494;2023-05-16T00:31:46;1.42;;;1.33;;
57615;SDS011;43816;52.054;-9.494;2023-05-16T00:31:56;1.50;;;1.40;;
57615;SDS011;43816;52.054;-9.494;2023-05-16T00:32:07;1.67;;;1.50;;
57615;SDS011;43816;52.054;-9.494;2023-05-16T00:32:17;1.58;;;1.48;;
57615;SDS011;43816;52.054;-9.494;2023-05-16T00:32:27;1.50;;;1.40;;
57615;SDS011;43816;52.054;-9.494;2023-05-16T00:32:38;1.40;;;1.30;;
57615;SDS011;43816;52.054;-9.494;2023-05-16T00:32:48;1.27;;;1.17;;
57615;SDS011;43816;52.054;-9.494;2023-05-16T00:32:58;1.17;;;1.07;;
57615;SDS011;43816;52.054;-9.494;2023-05-16T00:33:09;1.20;;;1.10;;
57615;SDS011;43816;52.054;-9.494;2023-05-16T00:33:19;1.30;;;1.20;;
57615;SDS011;43816;52.054;-9.494;2023-05-16T00:33:29;1.70;;;1.40;;
57615;SDS011;43816;52.054;-9.494;2023-05-16T00:33:39;1.70;;;1.40;;
57615;SDS011;43816;52.054;-9.494;2023-05-16T00:33:50;1.80;;;1.40;;
57615;SDS011;43816;52.054;-9.494;2023-05-16T00:34:00;1.47;;;1.30;;
57615;SDS011;43816;52.054;-9.494;2023-05-16T00:34:10;1.40;;;1.30;;
57615;SDS011;43816;52.054;-9.494;2023-05-16T00:34:21;1.42;;;1.33;;
57615;SDS011;43816;52.054;-9.494;2023-05-16T00:34:31;1.50;;;1.40;;
57615;SDS011;43816;52.054;-9.494;2023-05-16T00:34:41;1.33;;;1.23;;
57615;SDS011;43816;52.054;-9.494;2023-05-16T00:34:51;1.40;;;1.30;;
57615;SDS011;43816;52.054;-9.494;2023-05-16T00:35:02;1.40;;;1.30;;
57615;SDS011;43816;52.054;-9.494;2023-05-16T00:35:13;1.55;;;1.45;;
57615;SDS011;43816;52.054;-9.494;2023-05-16T00:35:23;1.70;;;1.47;;
57615;SDS011;43816;52.054;-9.494;2023-05-16T00:35:33;1.80;;;1.50;;
57615;SDS011;43816;52.054;-9.494;2023-05-16T00:35:44;1.58;;;1.38;;
57615;SDS011;43816;52.054;-9.494;2023-05-16T00:35:54;1.47;;;1.37;;
57615;SDS011;43816;52.054;-9.494;2023-05-16T00:36:04;1.47;;;1.37;;
57615;SDS011;43816;52.054;-9.494;2023-05-16T00:36:15;1.58;;;1.40;;
57615;SDS011;43816;52.054;-9.494;2023-05-16T00:36:25;1.67;;;1.40;;
57615;SDS011;43816;52.054;-9.494;2023-05-16T00:36:35;1.63;;;1.33;;
57615;SDS011;43816;52.054;-9.494;2023-05-16T00:36:45;1.50;;;1.30;;
57615;SDS011;43816;52.054;-9.494;2023-05-16T00:36:56;1.37;;;1.23;;
57615;SDS011;43816;52.054;-9.494;2023-05-16T00:37:06;1.42;;;1.23;;
57615;SDS011;43816;52.054;-9.494;2023-05-16T00:37:16;1.50;;;1.40;;
57615;SDS011;43816;52.054;-9.494;2023-05-16T00:37:27;1.70;;;1.30;;
57615;SDS011;43816;52.054;-9.494;2023-05-16T00:37:37;1.40;;;1.27;;
57615;SDS011;43816;52.054;-9.494;2023-05-16T00:37:47;1.30;;;1.10;;
57615;SDS011;43816;52.054;-9.494;2023-05-16T00:37:58;1.33;;;1.20;;
57615;SDS011;43816;52.054;-9.494;2023-05-16T00:38:09;1.60;;;1.33;;
57615;SDS011;43816;52.054;-9.494;2023-05-16T00:38:19;2.13;;;1.48;;
57615;SDS011;43816;52.054;-9.494;2023-05-16T00:38:29;2.00;;;1.50;;
57615;SDS011;43816;52.054;-9.494;2023-05-16T00:38:39;2.00;;;1.37;;
57615;SDS011;43816;52.054;-9.494;2023-05-16T00:38:50;1.33;;;1.20;;
57615;SDS011;43816;52.054;-9.494;2023-05-16T00:39:00;1.30;;;1.17;;
57615;SDS011;43816;52.054;-9.494;2023-05-16T00:39:10;1.33;;;1.23;;
57615;SDS011;43816;52.054;-9.494;2023-05-16T00:39:21;1.60;;;1.30;;
57615;SDS011;43816;52.054;-9.494;2023-05-16T00:39:31;1.60;;;1.40;;
57615;SDS011;43816;52.054;-9.494;2023-05-16T00:39:41;1.67;;;1.30;;
57615;SDS011;43816;52.054;-9.494;2023-05-16T00:39:51;1.50;;;1.10;;
57615;SDS011;43816;52.054;-9.494;2023-05-16T00:40:02;1.40;;;1.30;;
57615;SDS011;43816;52.054;-9.494;2023-05-16T00:40:12;1.50;;;1.40;;
57615;SDS011;43816;52.054;-9.494;2023-05-16T00:40:22;1.60;;;1.50;;
57615;SDS011;43816;52.054;-9.494;2023-05-16T00:40:33;1.40;;;1.30;;
57615;SDS011;43816;52.054;-9.494;2023-05-16T00:40:43;1.40;;;1.30;;
57615;SDS011;43816;52.054;-9.494;2023-05-16T00:40:53;1.50;;;1.30;;
57615;SDS011;43816;52.054;-9.494;2023-05-16T00:41:04;1.95;;;1.40;;
57615;SDS011;43816;52.054;-9.494;2023-05-16T00:41:15;1.67;;;1.30;;
57615;SDS011;43816;52.054;-9.494;2023-05-16T00:41:25;1.62;;;1.40;;
57615;SDS011;43816;52.054;-9.494;2023-05-16T00:41:36;1.83;;;1.33;;
57615;SDS011;43816;52.054;-9.494;2023-05-16T00:41:46;1.63;;;1.23;;
57615;SDS011;43816;52.054;-9.494;2023-05-16T00:41:57;1.60;;;1.20;;
57615;SDS011;43816;52.054;-9.494;2023-05-16T00:42:07;1.30;;;1.20;;
57615;SDS011;43816;52.054;-9.494;2023-05-16T00:42:18;1.40;;;1.30;;
57615;SDS011;43816;52.054;-9.494;2023-05-16T00:42:29;1.60;;;1.30;;
57615;SDS011;43816;52.054;-9.494;2023-05-16T00:42:39;1.67;;;1.40;;
57615;SDS011;43816;52.054;-9.494;2023-05-16T00:42:50;1.60;;;1.40;;
57615;SDS011;43816;52.054;-9.494;2023-05-16T00:43:00;1.40;;;1.30;;
57615;SDS011;43816;52.054;-9.494;2023-05-16T00:43:10;1.30;;;1.20;;
57615;SDS011;43816;52.054;-9.494;2023-05-16T00:43:21;1.27;;;1.17;;
57615;SDS011;43816;52.054;-9.494;2023-05-16T00:43:31;1.23;;;1.13;;
57615;SDS011;43816;52.054;-9.494;2023-05-16T00:43:41;1.30;;;1.20;;
57615;SDS011;43816;52.054;-9.494;2023-05-16T00:43:51;1.30;;;1.20;;
57615;SDS011;43816;52.054;-9.494;2023-05-16T00:44:02;1.30;;;1.20;;
57615;SDS011;43816;52.054;-9.494;2023-05-16T00:44:12;1.40;;;1.20;;
57615;SDS011;43816;52.054;-9.494;2023-05-16T00:44:22;1.40;;;1.20;;
57615;SDS011;43816;52.054;-9.494;2023-05-16T00:44:32;1.67;;;1.23;;
57615;SDS011;43816;52.054;-9.494;2023-05-16T00:44:43;1.33;;;1.20;;
57615;SDS011;43816;52.054;-9.494;2023-05-16T00:44:53;1.55;;;1.33;;
57615;SDS011;43816;52.054;-9.494;2023-05-16T00:45:04;1.73;;;1.40;;
57615;SDS011;43816;52.054;-9.494;2023-05-16T00:45:15;2.58;;;1.40;;
57615;SDS011;43816;52.054;-9.494;2023-05-16T00:45:25;2.27;;;1.33;;
57615;SDS011;43816;52.054;-9.494;2023-05-16T00:45:36;2.07;;;1.30;;
57615;SDS011;43816;52.054;-9.494;2023-05-16T00:45:46;1.58;;;1.30;;
57615;SDS011;43816;52.054;-9.494;2023-05-16T00:45:56;1.50;;;1.33;;
57615;SDS011;43816;52.054;-9.494;2023-05-16T00:46:07;1.70;;;1.50;;
57615;SDS011;43816;52.054;-9.494;2023-05-16T00:46:17;1.58;;;1.40;;
57615;SDS011;43816;52.054;-9.494;2023-05-16T00:46:27;1.90;;;1.30;;
57615;SDS011;43816;52.054;-9.494;2023-05-16T00:46:37;1.70;;;1.20;;
57615;SDS011;43816;52.054;-9.494;2023-05-16T00:46:48;1.65;;;1.30;;
57615;SDS011;43816;52.054;-9.494;2023-05-16T00:46:58;1.30;;;1.20;;
57615;SDS011;43816;52.054;-9.494;2023-05-16T00:47:08;1.30;;;1.20;;
57615;SDS011;43816;52.054;-9.494;2023-05-16T00:47:19;1.30;;;1.20;;
57615;SDS011;43816;52.054;-9.494;2023-05-16T00:47:29;1.40;;;1.30;;
57615;SDS011;43816;52.054;-9.494;2023-05-16T00:47:39;1.70;;;1.30;;
57615;SDS011;43816;52.054;-9.494;2023-05-16T00:47:50;1.77;;;1.40;;
57615;SDS011;43816;52.054;-9.494;2023-05-16T00:48:00;1.48;;;1.30;;
57615;SDS011;43816;52.054;-9.494;2023-05-16T00:48:11;1.40;;;1.30;;
57615;SDS011;43816;52.054;-9.494;2023-05-16T00:48:23;1.40;;;1.30;;
57615;SDS011;43816;52.054;-9.494;2023-05-16T00:48:34;1.40;;;1.30;;
57615;SDS011;43816;52.054;-9.494;2023-05-16T00:48:44;1.30;;;1.20;;
57615;SDS011;43816;52.054;-9.494;2023-05-16T00:48:54;1.23;;;1.13;;
57615;SDS011;43816;52.054;-9.494;2023-05-16T00:49:05;1.30;;;1.20;;
57615;SDS011;43816;52.054;-9.494;2023-05-16T00:49:15;1.33;;;1.23;;
57615;SDS011;43816;52.054;-9.494;2023-05-16T00:49:26;1.50;;;1.40;;
57615;SDS011;43816;52.054;-9.494;2023-05-16T00:49:36;1.57;;;1.33;;
57615;SDS011;43816;52.054;-9.494;2023-05-16T00:49:47;1.63;;;1.40;;
57615;SDS011;43816;52.054;-9.494;2023-05-16T00:49:57;1.77;;;1.50;;
57615;SDS011;43816;52.054;-9.494;2023-05-16T00:50:08;1.90;;;1.48;;
57615;SDS011;43816;52.054;-9.494;2023-05-16T00:50:19;1.73;;;1.30;;
57615;SDS011;43816;52.054;-9.494;2023-05-16T00:50:29;1.55;;;1.30;;
57615;SDS011;43816;52.054;-9.494;2023-05-16T00:50:40;1.67;;;1.20;;
57615;SDS011;43816;52.054;-9.494;2023-05-16T00:50:50;1.80;;;1.20;;
57615;SDS011;43816;52.054;-9.494;2023-05-16T00:51:01;1.90;;;1.20;;
57615;SDS011;43816;52.054;-9.494;2023-05-16T00:51:11;1.58;;;1.20;;
57615;SDS011;43816;52.054;-9.494;2023-05-16T00:51:22;2.00;;;1.20;;
57615;SDS011;43816;52.054;-9.494;2023-05-16T00:51:33;1.90;;;1.20;;
57615;SDS011;43816;52.054;-9.494;2023-05-16T00:51:43;2.00;;;1.25;;
57615;SDS011;43816;52.054;-9.494;2023-05-16T00:51:54;1.42;;;1.20;;
57615;SDS011;43816;52.054;-9.494;2023-05-16T00:52:06;1.52;;;1.25;;
57615;SDS011;43816;52.054;-9.494;2023-05-16T00:52:16;1.30;;;1.20;;
57615;SDS011;43816;52.054;-9.494;2023-05-16T00:52:27;1.40;;;1.30;;
57615;SDS011;43816;52.054;-9.494;2023-05-16T00:52:37;1.52;;;1.35;;
57615;SDS011;43816;52.054;-9.494;2023-05-16T00:52:48;1.47;;;1.37;;
57615;SDS011;43816;52.054;-9.494;2023-05-16T00:52:58;1.67;;;1.40;;
57615;SDS011;43816;52.054;-9.494;2023-05-16T00:53:08;1.40;;;1.30;;
57615;SDS011;43816;52.054;-9.494;2023-05-16T00:53:19;1.52;;;1.35;;
57615;SDS011;43816;52.054;-9.494;2023-05-16T00:53:30;1.43;;;1.30;;
57615;SDS011;43816;52.054;-9.494;2023-05-16T00:53:40;1.67;;;1.40;;
57615;SDS011;43816;52.054;-9.494;2023-05-16T00:53:51;1.73;;;1.45;;
57615;SDS011;43816;52.054;-9.494;2023-05-16T00:54:02;1.55;;;1.38;;
57615;SDS011;43816;52.054;-9.494;2023-05-16T00:54:13;1.40;;;1.27;;
57615;SDS011;43816;52.054;-9.494;2023-05-16T00:54:24;1.30;;;1.20;;
57615;SDS011;43816;52.054;-9.494;2023-05-16T00:54:35;1.60;;;1.40;;
57615;SDS011;43816;52.054;-9.494;2023-05-16T00:54:45;1.80;;;1.40;;
57615;SDS011;43816;52.054;-9.494;2023-05-16T00:54:56;1.73;;;1.40;;
57615;SDS011;43816;52.054;-9.494;2023-05-16T00:55:06;1.60;;;1.40;;
57615;SDS011;43816;52.054;-9.494;2023-05-16T00:55:17;1.50;;;1.40;;
57615;SDS011;43816;52.054;-9.494;2023-05-16T00:55:27;1.50;;;1.40;;
57615;SDS011;43816;52.054;-9.494;2023-05-16T00:55:38;1.40;;;1.30;;
57615;SDS011;43816;52.054;-9.494;2023-05-16T00:55:48;1.50;;;1.40;;
57615;SDS011;43816;52.054;-9.494;2023-05-16T00:55:59;1.45;;;1.35;;
57615;SDS011;43816;52.054;-9.494;2023-05-16T00:56:09;1.50;;;1.40;;
57615;SDS011;43816;52.054;-9.494;2023-05-16T00:56:19;1.60;;;1.50;;
57615;SDS011;43816;52.054;-9.494;2023-05-16T00:56:30;1.40;;;1.30;;
57615;SDS011;43816;52.054;-9.494;2023-05-16T00:56:40;1.40;;;1.30;;
57615;SDS011;43816;52.054;-9.494;2023-05-16T00:56:51;1.43;;;1.33;;
57615;SDS011;43816;52.054;-9.494;2023-05-16T00:57:02;1.55;;;1.40;;
57615;SDS011;43816;52.054;-9.494;2023-05-16T00:57:14;1.92;;;1.48;;
57615;SDS011;43816;52.054;-9.494;2023-05-16T00:57:24;1.88;;;1.50;;
57615;SDS011;43816;52.054;-9.494;2023-05-16T00:57:35;1.80;;;1.50;;
57615;SDS011;43816;52.054;-9.494;2023-05-16T00:57:46;1.80;;;1.58;;
57615;SDS011;43816;52.054;-9.494;2023-05-16T00:57:57;1.60;;;1.50;;
57615;SDS011;43816;52.054;-9.494;2023-05-16T00:58:08;1.87;;;1.50;;
57615;SDS011;43816;52.054;-9.494;2023-05-16T00:58:20;1.58;;;1.40;;
57615;SDS011;43816;52.054;-9.494;2023-05-16T00:58:31;1.73;;;1.40;;
57615;SDS011;43816;52.054;-9.494;2023-05-16T00:58:42;1.77;;;1.40;;
57615;SDS011;43816;52.054;-9.494;2023-05-16T00:58:53;1.83;;;1.53;;
57615;SDS011;43816;52.054;-9.494;2023-05-16T00:59:03;1.60;;;1.38;;
57615;SDS011;43816;52.054;-9.494;2023-05-16T00:59:14;1.30;;;1.20;;
57615;SDS011;43816;52.054;-9.494;2023-05-16T00:59:25;1.20;;;1.10;;
57615;SDS011;43816;52.054;-9.494;2023-05-16T00:59:36;1.20;;;1.10;;
57615;SDS011;43816;52.054;-9.494;2023-05-16T00:59:46;1.50;;;1.20;;
57615;SDS011;43816;52.054;-9.494;2023-05-16T00:59:57;1.60;;;1.20;;
57615;SDS011;43816;52.054;-9.494;2023-05-16T01:00:08;1.55;;;1.35;;
57615;SDS011;43816;52.054;-9.494;2023-05-16T01:00:19;1.52;;;1.30;;
57615;SDS011;43816;52.054;-9.494;2023-05-16T01:00:29;1.63;;;1.40;;
57615;SDS011;43816;52.054;-9.494;2023-05-16T01:00:39;1.53;;;1.30;;
57615;SDS011;43816;52.054;-9.494;2023-05-16T01:00:50;1.73;;;1.48;;
57615;SDS011;43816;52.054;-9.494;2023-05-16T01:01:00;1.77;;;1.53;;
57615;SDS011;43816;52.054;-9.494;2023-05-16T01:01:10;2.20;;;1.60;;
57615;SDS011;43816;52.054;-9.494;2023-05-16T01:01:22;2.05;;;1.40;;
57615;SDS011;43816;52.054;-9.494;2023-05-16T01:01:34;2.33;;;1.42;;
57615;SDS011;43816;52.054;-9.494;2023-05-16T01:01:45;2.03;;;1.50;;
57615;SDS011;43816;52.054;-9.494;2023-05-16T01:01:56;1.88;;;1.58;;
57615;SDS011;43816;52.054;-9.494;2023-05-16T01:02:06;1.53;;;1.40;;
57615;SDS011;43816;52.054;-9.494;2023-05-16T01:02:16;1.50;;;1.40;;
57615;SDS011;43816;52.054;-9.494;2023-05-16T01:02:27;1.40;;;1.30;;